Terminal Aerodrome Forecast
Issued by NWS

Home | Current Version | Previous Version | Text Only | Print | Product List | Glossary On
Versions: 1 2 3 4 5 6 7 8 9 10 11 12 13 14 15
535
FTUS43 KOAX 281720
TAFBFF
TAF
KBFF 281720Z 2818/2918 27007KT P6SM SKC
     FM282300 15012KT P6SM VCTS BKN080CB
     FM290400 32006KT P6SM BKN080=

USA.gov is the U.S. government's official web portal to all federal, state and local government web resources and services.